createdAt,value
2022-10-22T00:00:56.659Z,12.80
2022-10-22T00:03:24.564Z,12.80
2022-10-22T00:05:52.308Z,12.80
2022-10-22T00:08:20.041Z,12.80
2022-10-22T00:10:47.838Z,12.90
2022-10-22T00:13:16.109Z,12.90
2022-10-22T00:15:45.232Z,12.90
2022-10-22T00:18:12.993Z,12.90
2022-10-22T00:20:40.781Z,12.90
2022-10-22T00:23:08.568Z,12.90
2022-10-22T00:25:37.092Z,12.90
2022-10-22T00:28:05.197Z,12.90
2022-10-22T00:30:32.989Z,12.90
2022-10-22T00:33:02.098Z,13.00
2022-10-22T00:35:30.041Z,12.90
2022-10-22T00:37:57.773Z,12.90
2022-10-22T00:40:25.863Z,12.90
2022-10-22T00:42:53.662Z,12.80
2022-10-22T00:45:23.900Z,12.90
2022-10-22T00:47:56.317Z,12.90
2022-10-22T00:50:29.565Z,13.00
2022-10-22T00:52:58.388Z,13.00
2022-10-22T00:55:27.284Z,13.00
2022-10-22T00:57:56.341Z,13.00
2022-10-22T01:00:24.457Z,13.00
2022-10-22T01:02:53.357Z,13.00
2022-10-22T01:05:21.929Z,13.00
2022-10-22T01:07:53.787Z,13.00
2022-10-22T01:10:33.241Z,13.00
2022-10-22T01:13:12.703Z,13.00
2022-10-22T01:15:51.581Z,13.00
2022-10-22T01:18:25.466Z,13.00
2022-10-22T01:21:04.873Z,13.00
2022-10-22T01:24:09.374Z,13.00
2022-10-22T01:26:54.923Z,13.00
2022-10-22T01:29:28.855Z,13.00
2022-10-22T01:32:01.401Z,13.00
2022-10-22T01:34:31.019Z,13.00
2022-10-22T01:37:00.506Z,13.00
2022-10-22T01:39:30.365Z,13.00
2022-10-22T01:41:59.583Z,12.90
2022-10-22T01:44:31.621Z,12.90
2022-10-22T01:47:15.974Z,12.90
2022-10-22T01:50:02.645Z,12.90
2022-10-22T01:52:45.845Z,12.90
2022-10-22T01:55:20.710Z,13.00
2022-10-22T01:57:54.726Z,13.00
2022-10-22T02:00:24.536Z,13.00
2022-10-22T02:02:59.111Z,13.10
2022-10-22T02:05:33.281Z,13.10
2022-10-22T02:08:06.590Z,13.10
2022-10-22T02:10:37.829Z,13.20
2022-10-22T02:13:09.042Z,13.20
2022-10-22T02:15:39.424Z,13.20
2022-10-22T02:18:09.624Z,13.30
2022-10-22T02:20:39.609Z,13.30
2022-10-22T02:23:07.606Z,13.30
2022-10-22T02:25:37.363Z,13.30
2022-10-22T02:28:14.249Z,13.30
2022-10-22T02:30:47.600Z,13.30
2022-10-22T02:33:20.924Z,13.40
2022-10-22T02:35:50.696Z,13.40
2022-10-22T02:38:19.638Z,13.40
2022-10-22T02:40:48.116Z,13.40
2022-10-22T02:43:15.996Z,13.30
2022-10-22T02:45:45.553Z,13.30
2022-10-22T02:48:13.538Z,13.30
2022-10-22T02:50:41.546Z,13.40
2022-10-22T02:53:09.417Z,13.40
2022-10-22T02:55:37.365Z,13.30
2022-10-22T02:58:05.375Z,13.40
2022-10-22T03:00:33.282Z,13.30
2022-10-22T03:03:02.566Z,13.30
2022-10-22T03:05:30.398Z,13.30
2022-10-22T03:07:58.300Z,13.20
2022-10-22T03:10:26.224Z,13.20
2022-10-22T03:12:54.463Z,13.10
2022-10-22T03:15:22.417Z,13.10
2022-10-22T03:17:50.285Z,13.10
2022-10-22T03:20:19.548Z,13.10
2022-10-22T03:22:48.047Z,13.00
2022-10-22T03:25:20.304Z,13.00
2022-10-22T03:27:50.625Z,13.00
2022-10-22T03:30:18.693Z,13.00
2022-10-22T03:32:46.621Z,13.00
2022-10-22T03:35:14.537Z,13.00
2022-10-22T03:37:43.933Z,13.00
2022-10-22T03:40:13.624Z,13.10
2022-10-22T03:42:42.638Z,13.00
2022-10-22T03:45:11.766Z,13.00
2022-10-22T03:47:39.971Z,13.00
2022-10-22T03:50:09.433Z,13.00
2022-10-22T03:52:38.493Z,13.00
2022-10-22T03:55:09.227Z,12.90
2022-10-22T03:57:37.749Z,13.00
2022-10-22T04:00:07.281Z,12.90
2022-10-22T04:02:35.172Z,13.00
2022-10-22T04:05:03.117Z,13.00
2022-10-22T04:07:31.098Z,13.00
2022-10-22T04:09:59.006Z,13.00
2022-10-22T04:12:28.249Z,13.00
2022-10-22T04:14:56.128Z,13.00
2022-10-22T04:17:24.009Z,13.00
2022-10-22T04:19:51.905Z,13.00
2022-10-22T04:22:19.736Z,13.00
2022-10-22T04:24:47.645Z,13.00
2022-10-22T04:27:15.524Z,13.00
2022-10-22T04:29:44.738Z,13.00
2022-10-22T04:32:12.578Z,13.00
2022-10-22T04:34:40.420Z,12.90
2022-10-22T04:37:08.270Z,12.90
2022-10-22T04:39:36.159Z,12.90
2022-10-22T04:42:04.110Z,12.90
2022-10-22T04:44:32.062Z,12.90
2022-10-22T04:47:01.402Z,12.90
2022-10-22T04:49:29.428Z,12.90
2022-10-22T04:51:57.272Z,12.90
2022-10-22T04:54:27.755Z,12.90
2022-10-22T04:56:58.420Z,12.90
2022-10-22T04:59:26.319Z,12.90
2022-10-22T05:01:54.157Z,12.90
2022-10-22T05:04:23.345Z,12.90
2022-10-22T05:06:51.222Z,12.90
2022-10-22T05:09:21.513Z,12.90
2022-10-22T05:11:51.496Z,12.90
2022-10-22T05:14:22.475Z,12.90
2022-10-22T05:16:50.790Z,12.90
2022-10-22T05:19:20.702Z,12.90
2022-10-22T05:21:49.910Z,12.90
2022-10-22T05:24:18.073Z,13.00
2022-10-22T05:26:46.195Z,12.90
2022-10-22T05:29:14.863Z,13.00
2022-10-22T05:31:42.733Z,12.90
2022-10-22T05:34:10.801Z,12.90
2022-10-22T05:36:38.746Z,12.90
2022-10-22T05:39:08.222Z,12.90
2022-10-22T05:41:36.813Z,12.90
2022-10-22T05:44:05.401Z,12.90
2022-10-22T05:46:36.546Z,12.90
2022-10-22T05:49:08.644Z,12.90
2022-10-22T05:51:38.145Z,12.80
2022-10-22T05:54:10.916Z,12.80
2022-10-22T05:56:39.850Z,12.70
2022-10-22T05:59:07.708Z,12.80
2022-10-22T06:01:36.318Z,12.70
2022-10-22T06:04:05.897Z,12.60
2022-10-22T06:06:36.258Z,12.60
2022-10-22T06:09:12.062Z,12.60
2022-10-22T06:11:40.001Z,12.60
2022-10-22T06:14:07.926Z,12.60
2022-10-22T06:16:35.801Z,12.70
2022-10-22T06:19:04.281Z,12.60
2022-10-22T06:21:32.904Z,12.70
2022-10-22T06:24:02.227Z,12.60
2022-10-22T06:26:32.140Z,12.60
2022-10-22T06:29:00.860Z,12.60
2022-10-22T06:31:29.564Z,12.60
2022-10-22T06:33:57.993Z,12.60
2022-10-22T06:36:26.825Z,12.60
2022-10-22T06:38:56.283Z,12.50
2022-10-22T06:41:28.574Z,12.60
2022-10-22T06:43:59.940Z,12.60
2022-10-22T06:46:27.878Z,12.60
2022-10-22T06:48:58.115Z,12.60
2022-10-22T06:51:27.041Z,12.60
2022-10-22T06:53:55.614Z,12.50
2022-10-22T06:56:25.490Z,12.50
2022-10-22T06:58:55.351Z,12.50
2022-10-22T07:01:26.694Z,12.50
2022-10-22T07:03:55.057Z,12.60
2022-10-22T07:06:24.689Z,12.60
2022-10-22T07:08:52.872Z,12.60
2022-10-22T07:11:23.163Z,12.60
2022-10-22T07:13:51.837Z,12.60
2022-10-22T07:16:19.946Z,12.60
2022-10-22T07:18:49.726Z,12.60
2022-10-22T07:21:20.230Z,12.70
2022-10-22T07:23:48.243Z,12.70
2022-10-22T07:26:17.954Z,12.70
2022-10-22T07:28:45.871Z,12.80
2022-10-22T07:31:15.634Z,12.80
2022-10-22T07:33:43.538Z,12.90
2022-10-22T07:36:17.583Z,12.90
2022-10-22T07:38:46.070Z,12.90
2022-10-22T07:41:14.741Z,13.00
2022-10-22T07:43:43.001Z,13.10
2022-10-22T07:46:10.982Z,13.20
2022-10-22T07:48:39.022Z,13.40
2022-10-22T07:51:07.778Z,13.60
2022-10-22T07:53:37.515Z,13.80
2022-10-22T07:56:05.992Z,14.10
2022-10-22T07:58:33.838Z,14.40
2022-10-22T08:01:05.687Z,14.70
2022-10-22T08:03:34.200Z,14.90
2022-10-22T08:06:02.737Z,15.40
2022-10-22T08:08:31.145Z,16.10
2022-10-22T08:11:01.798Z,16.70
2022-10-22T08:13:31.032Z,17.10
2022-10-22T08:15:59.973Z,17.50
2022-10-22T08:18:28.282Z,18.10
2022-10-22T08:20:56.181Z,18.30
2022-10-22T08:23:26.109Z,18.10
2022-10-22T08:25:56.987Z,18.00
2022-10-22T08:28:28.446Z,18.00
2022-10-22T08:30:56.353Z,18.40
2022-10-22T08:33:24.290Z,18.80
2022-10-22T08:35:52.828Z,19.00
2022-10-22T08:38:21.274Z,18.70
2022-10-22T08:40:52.507Z,18.30
2022-10-22T08:43:49.626Z,18.00
2022-10-22T08:46:42.885Z,18.00
2022-10-22T08:49:23.148Z,18.00
2022-10-22T08:51:51.608Z,18.80
2022-10-22T08:54:29.035Z,20.60
2022-10-22T09:01:20.607Z,24.20
2022-10-22T09:03:53.365Z,27.90
2022-10-22T09:06:25.199Z,30.10
2022-10-22T09:08:54.690Z,31.80
2022-10-22T09:11:28.491Z,32.40
2022-10-22T09:13:58.298Z,33.40
2022-10-22T09:16:36.290Z,34.00
2022-10-22T09:19:13.875Z,34.10
2022-10-22T09:21:51.642Z,33.80
2022-10-22T09:24:32.149Z,33.90
2022-10-22T09:27:02.289Z,34.30
2022-10-22T09:29:34.783Z,32.80
2022-10-22T09:32:04.416Z,31.00
2022-10-22T09:34:33.553Z,29.90
2022-10-22T09:37:04.093Z,29.20
2022-10-22T09:39:34.948Z,30.30
2022-10-22T09:42:03.065Z,30.30
2022-10-22T09:44:34.843Z,29.70
2022-10-22T09:47:07.250Z,28.20
2022-10-22T09:49:37.092Z,26.00
2022-10-22T09:52:18.314Z,24.00
2022-10-22T09:54:46.192Z,22.60
2022-10-22T09:57:17.646Z,22.20
2022-10-22T09:59:49.189Z,23.00
2022-10-22T10:02:37.408Z,24.50
2022-10-22T10:05:08.325Z,26.40
2022-10-22T10:07:37.602Z,28.60
2022-10-22T10:10:20.362Z,29.10
2022-10-22T10:12:55.226Z,28.10
2022-10-22T10:15:28.909Z,28.60
2022-10-22T10:18:08.095Z,29.30
2022-10-22T10:20:41.207Z,29.40
2022-10-22T10:23:16.485Z,31.10
2022-10-22T10:25:52.271Z,32.10
2022-10-22T10:28:45.433Z,31.70
2022-10-22T10:31:23.724Z,30.30
2022-10-22T10:34:02.217Z,28.20
2022-10-22T10:36:37.804Z,27.70
2022-10-22T10:39:09.710Z,27.60
2022-10-22T10:41:46.155Z,27.90
2022-10-22T10:44:30.605Z,29.50
2022-10-22T10:47:12.870Z,31.50
2022-10-22T10:49:44.631Z,33.70
2022-10-22T10:52:21.587Z,33.30
2022-10-22T10:55:05.604Z,32.90
2022-10-22T10:57:45.762Z,33.80
2022-10-22T11:00:17.950Z,34.60
2022-10-22T11:03:24.586Z,35.20
2022-10-22T11:05:56.369Z,35.60
2022-10-22T11:08:28.021Z,36.20
2022-10-22T11:11:01.340Z,37.10
2022-10-22T11:13:35.608Z,37.90
2022-10-22T11:16:10.889Z,38.50
2022-10-22T11:18:41.573Z,37.80
2022-10-22T11:21:18.634Z,36.70
2022-10-22T11:23:51.448Z,36.40
2022-10-22T11:26:30.142Z,35.90
2022-10-22T11:28:59.593Z,35.60
2022-10-22T11:31:28.477Z,34.80
2022-10-22T11:34:28.553Z,34.90
2022-10-22T11:36:56.385Z,35.60
2022-10-22T11:39:39.133Z,36.50
2022-10-22T11:42:11.213Z,37.10
2022-10-22T11:45:01.439Z,37.60
2022-10-22T11:47:32.932Z,38.10
2022-10-22T11:50:17.889Z,37.40
2022-10-22T11:52:55.942Z,37.30
2022-10-22T11:55:35.057Z,36.90
2022-10-22T11:58:23.645Z,36.80
2022-10-22T12:00:51.478Z,36.70
2022-10-22T12:03:24.530Z,35.00
2022-10-22T12:06:08.387Z,32.50
2022-10-22T12:08:44.974Z,29.70
2022-10-22T12:11:18.055Z,28.00
2022-10-22T12:14:03.577Z,28.00
2022-10-22T12:16:55.098Z,28.20
2022-10-22T12:19:31.023Z,28.90
2022-10-22T12:22:01.207Z,30.60
2022-10-22T12:24:35.203Z,31.60
2022-10-22T12:27:03.171Z,32.00
2022-10-22T12:29:33.798Z,31.80
2022-10-22T12:32:04.904Z,32.00
2022-10-22T12:34:32.742Z,32.40
2022-10-22T12:37:00.663Z,32.90
2022-10-22T12:39:29.914Z,32.40
2022-10-22T12:41:59.125Z,32.30
2022-10-22T12:44:26.989Z,32.60
2022-10-22T12:46:57.044Z,32.90
2022-10-22T12:49:34.283Z,33.70
2022-10-22T12:52:04.028Z,34.50
2022-10-22T12:54:34.150Z,35.30
2022-10-22T12:57:03.595Z,35.90
2022-10-22T12:59:35.642Z,36.30
2022-10-22T13:02:09.035Z,36.10
2022-10-22T13:04:39.462Z,35.90
2022-10-22T13:07:21.272Z,36.10
2022-10-22T13:09:59.965Z,36.30
2022-10-22T13:12:36.161Z,36.40
2022-10-22T13:15:19.744Z,36.20
2022-10-22T13:17:49.561Z,36.10
2022-10-22T13:20:21.969Z,36.10
2022-10-22T13:23:00.092Z,36.20
2022-10-22T13:25:30.177Z,35.80
2022-10-22T13:28:02.719Z,35.70
2022-10-22T13:30:32.281Z,35.50
2022-10-22T13:33:01.897Z,35.20
2022-10-22T13:35:33.011Z,34.90
2022-10-22T13:38:01.478Z,34.90
2022-10-22T13:40:29.696Z,34.80
2022-10-22T13:42:58.901Z,34.40
2022-10-22T13:45:26.744Z,34.10
2022-10-22T13:47:56.972Z,32.70
2022-10-22T13:50:24.845Z,31.70
2022-10-22T13:52:55.293Z,30.70
2022-10-22T13:55:25.934Z,29.80
2022-10-22T13:57:56.280Z,28.80
2022-10-22T14:00:26.407Z,27.80
2022-10-22T14:02:58.065Z,26.90
2022-10-22T14:05:26.243Z,26.00
2022-10-22T14:07:54.420Z,25.30
2022-10-22T14:10:25.105Z,24.70
2022-10-22T14:12:54.001Z,24.10
2022-10-22T14:15:24.236Z,23.60
2022-10-22T14:17:57.229Z,23.10
2022-10-22T14:20:29.013Z,22.70
2022-10-22T14:22:57.403Z,22.40
2022-10-22T14:25:26.858Z,22.10
2022-10-22T14:27:54.757Z,21.80
2022-10-22T14:30:24.157Z,21.60
2022-10-22T14:32:52.437Z,21.30
2022-10-22T14:35:23.377Z,21.20
2022-10-22T14:37:51.661Z,21.00
2022-10-22T14:40:21.467Z,20.80
2022-10-22T14:42:50.085Z,20.60
2022-10-22T14:45:21.266Z,20.50
2022-10-22T14:47:49.919Z,20.40
2022-10-22T14:50:18.591Z,20.30
2022-10-22T14:52:48.114Z,20.20
2022-10-22T14:55:17.447Z,20.10
2022-10-22T14:57:45.779Z,20.00
2022-10-22T15:00:16.330Z,19.90
2022-10-22T15:02:44.547Z,19.90
2022-10-22T15:05:12.760Z,19.80
2022-10-22T15:07:40.965Z,19.80
2022-10-22T15:10:11.154Z,19.80
2022-10-22T15:12:39.013Z,19.80
2022-10-22T15:15:07.987Z,19.80
2022-10-22T15:17:35.939Z,19.80
2022-10-22T15:20:05.402Z,19.70
2022-10-22T15:22:35.180Z,19.60
2022-10-22T15:25:04.811Z,19.50
2022-10-22T15:27:34.447Z,19.40
2022-10-22T15:32:35.339Z,19.30
2022-10-22T15:35:03.533Z,19.20
2022-10-22T15:37:31.795Z,19.10
2022-10-22T15:40:00.456Z,19.00
2022-10-22T15:42:28.382Z,18.90
2022-10-22T15:44:59.881Z,18.80
2022-10-22T15:47:29.407Z,18.70
2022-10-22T15:49:57.384Z,18.60
2022-10-22T15:52:25.320Z,18.50
2022-10-22T15:54:53.240Z,18.30
2022-10-22T15:57:21.148Z,18.20
2022-10-22T15:59:49.986Z,18.10
2022-10-22T16:02:19.241Z,18.00
2022-10-22T16:04:47.805Z,17.90
2022-10-22T16:07:15.685Z,17.70
2022-10-22T16:09:43.543Z,17.60
2022-10-22T16:12:13.136Z,17.50
2022-10-22T16:14:43.333Z,17.40
2022-10-22T16:17:11.182Z,17.30
2022-10-22T16:19:40.375Z,17.20
2022-10-22T16:22:10.077Z,17.10
2022-10-22T16:24:40.263Z,16.90
2022-10-22T16:27:08.359Z,16.90
2022-10-22T16:29:38.174Z,16.90
2022-10-22T16:32:06.673Z,16.70
2022-10-22T16:34:34.591Z,16.70
2022-10-22T16:37:09.653Z,16.60
2022-10-22T16:39:37.549Z,16.50
2022-10-22T16:42:05.618Z,16.40
2022-10-22T16:44:33.474Z,16.30
2022-10-22T16:47:01.879Z,16.20
2022-10-22T16:49:29.771Z,16.10
2022-10-22T16:51:57.631Z,16.00
2022-10-22T16:54:26.869Z,15.90
2022-10-22T16:56:54.754Z,15.80
2022-10-22T16:59:22.641Z,15.80
2022-10-22T17:01:50.556Z,15.80
2022-10-22T17:04:18.517Z,15.70
2022-10-22T17:06:46.368Z,15.70
2022-10-22T17:09:14.958Z,15.60
2022-10-22T17:11:44.995Z,15.60
2022-10-22T17:14:13.069Z,15.50
2022-10-22T17:16:40.924Z,15.30
2022-10-22T17:19:08.932Z,15.20
2022-10-22T17:21:36.801Z,15.10
2022-10-22T17:24:05.036Z,15.00
2022-10-22T17:26:34.530Z,14.90
2022-10-22T17:29:03.989Z,14.90
2022-10-22T17:31:35.432Z,14.80
2022-10-22T17:34:03.349Z,14.80
2022-10-22T17:36:35.656Z,14.70
2022-10-22T17:39:07.271Z,14.60
2022-10-22T17:41:37.348Z,14.50
2022-10-22T17:44:09.755Z,14.50
2022-10-22T17:46:38.271Z,14.40
2022-10-22T17:49:09.078Z,14.40
2022-10-22T17:51:36.982Z,14.30
2022-10-22T17:54:07.501Z,14.20
2022-10-22T17:56:39.897Z,14.10
2022-10-22T17:59:09.585Z,14.00
2022-10-22T18:01:43.230Z,13.90
2022-10-22T18:04:14.206Z,13.80
2022-10-22T18:06:42.268Z,13.80
2022-10-22T18:09:15.730Z,13.70
2022-10-22T18:11:46.754Z,13.70
2022-10-22T18:14:17.318Z,13.70
2022-10-22T18:16:45.614Z,13.70
2022-10-22T18:19:16.347Z,13.70
2022-10-22T18:21:44.241Z,13.70
2022-10-22T18:24:12.365Z,13.70
2022-10-22T18:26:40.196Z,13.60
2022-10-22T18:29:08.098Z,13.50
2022-10-22T18:31:37.334Z,13.50
2022-10-22T18:34:05.186Z,13.40
2022-10-22T18:36:33.049Z,13.40
2022-10-22T18:39:02.323Z,13.40
2022-10-22T18:41:31.697Z,13.40
2022-10-22T18:44:00.928Z,13.30
2022-10-22T18:46:29.697Z,13.30
2022-10-22T18:49:00.020Z,13.20
2022-10-22T18:51:31.555Z,13.20
2022-10-22T18:54:05.951Z,13.20
2022-10-22T18:56:47.870Z,13.10
2022-10-22T18:59:19.139Z,13.00
2022-10-22T19:01:47.002Z,12.90
2022-10-22T19:04:16.457Z,12.80
2022-10-22T19:06:45.697Z,12.70
2022-10-22T19:09:14.606Z,12.70
2022-10-22T19:11:43.557Z,12.60
2022-10-22T19:14:11.476Z,12.60
2022-10-22T19:16:39.393Z,12.60
2022-10-22T19:19:08.279Z,12.50
2022-10-22T19:21:38.441Z,12.50
2022-10-22T19:24:07.425Z,12.50
2022-10-22T19:26:35.616Z,12.40
2022-10-22T19:29:05.014Z,12.30
2022-10-22T19:31:33.090Z,12.20
2022-10-22T19:34:02.497Z,12.10
2022-10-22T19:36:32.466Z,12.00
2022-10-22T19:39:02.706Z,12.00
2022-10-22T19:41:31.926Z,12.00
2022-10-22T19:44:01.398Z,12.00
2022-10-22T19:46:32.373Z,11.90
2022-10-22T19:49:00.790Z,11.90
2022-10-22T19:51:30.661Z,11.80
2022-10-22T19:54:01.261Z,11.70
2022-10-22T19:56:29.974Z,11.60
2022-10-22T19:58:57.877Z,11.50
2022-10-22T20:01:26.710Z,11.50
2022-10-22T20:03:55.188Z,11.50
2022-10-22T20:06:23.049Z,11.50
2022-10-22T20:08:55.191Z,11.50
2022-10-22T20:11:27.740Z,11.50
2022-10-22T20:13:56.683Z,11.40
2022-10-22T20:16:28.347Z,11.40
2022-10-22T20:18:57.083Z,11.30
2022-10-22T20:21:24.990Z,11.20
2022-10-22T20:23:54.345Z,11.20
2022-10-22T20:26:23.817Z,11.20
2022-10-22T20:28:53.256Z,11.10
2022-10-22T20:31:23.897Z,11.10
2022-10-22T20:33:52.309Z,11.20
2022-10-22T20:36:22.609Z,11.30
2022-10-22T20:38:51.492Z,11.30
2022-10-22T20:41:21.346Z,11.30
2022-10-22T20:43:51.298Z,11.30
2022-10-22T20:46:22.849Z,11.30
2022-10-22T20:48:51.941Z,11.30
2022-10-22T20:51:20.042Z,11.30
2022-10-22T20:53:48.066Z,11.20
2022-10-22T20:56:16.349Z,11.20
2022-10-22T20:58:48.250Z,11.20
2022-10-22T21:01:21.356Z,11.20
2022-10-22T21:03:51.813Z,11.20
2022-10-22T21:06:20.918Z,11.10
2022-10-22T21:08:48.868Z,11.10
2022-10-22T21:11:16.914Z,11.10
2022-10-22T21:13:44.728Z,11.00
2022-10-22T21:16:15.002Z,11.00
2022-10-22T21:18:42.842Z,11.00
2022-10-22T21:21:12.921Z,10.90
2022-10-22T21:23:41.143Z,10.90
2022-10-22T21:26:09.206Z,10.90
2022-10-22T21:28:37.758Z,10.90
2022-10-22T21:31:07.482Z,10.90
2022-10-22T21:33:37.154Z,11.00
2022-10-22T21:36:06.076Z,11.00
2022-10-22T21:38:36.041Z,11.00
2022-10-22T21:41:06.250Z,11.10
2022-10-22T21:43:34.238Z,11.00
2022-10-22T21:46:08.074Z,11.00
2022-10-22T21:48:37.092Z,11.00
2022-10-22T21:51:09.724Z,10.90
2022-10-22T21:53:39.363Z,10.90
2022-10-22T21:56:08.536Z,10.90
2022-10-22T21:58:37.113Z,10.90
2022-10-22T22:01:05.777Z,10.90
2022-10-22T22:03:33.945Z,10.80
2022-10-22T22:06:03.281Z,10.80
2022-10-22T22:08:31.398Z,10.80
2022-10-22T22:11:04.188Z,10.70
2022-10-22T22:13:32.673Z,10.70
2022-10-22T22:16:02.085Z,10.70
2022-10-22T22:18:30.606Z,10.70
2022-10-22T22:20:59.026Z,10.70
2022-10-22T22:23:27.305Z,10.70
2022-10-22T22:25:59.945Z,10.80
2022-10-22T22:28:30.709Z,10.80
2022-10-22T22:30:59.983Z,10.90
2022-10-22T22:33:28.294Z,10.90
2022-10-22T22:35:59.864Z,10.90
2022-10-22T22:38:27.742Z,10.90
2022-10-22T22:40:55.579Z,10.90
2022-10-22T22:43:23.405Z,10.90
2022-10-22T22:46:01.627Z,10.90
2022-10-22T22:48:31.297Z,10.90
2022-10-22T22:50:59.965Z,10.80
2022-10-22T22:53:28.668Z,10.80
2022-10-22T22:56:10.794Z,10.80
2022-10-22T22:58:40.365Z,10.80
2022-10-22T23:01:16.853Z,10.90
2022-10-22T23:03:46.243Z,10.90
2022-10-22T23:06:14.977Z,10.90
2022-10-22T23:08:43.577Z,10.70
2022-10-22T23:11:13.057Z,10.80
2022-10-22T23:13:41.789Z,10.80
2022-10-22T23:16:13.322Z,10.80
2022-10-22T23:18:43.074Z,10.70
2022-10-22T23:21:14.308Z,10.70
2022-10-22T23:23:44.628Z,10.70
2022-10-22T23:26:13.294Z,10.80
2022-10-22T23:28:41.253Z,10.80
2022-10-22T23:31:11.545Z,10.80
2022-10-22T23:33:39.402Z,10.80
2022-10-22T23:36:09.177Z,10.80
2022-10-22T23:38:38.698Z,10.90
2022-10-22T23:41:07.165Z,10.90
2022-10-22T23:43:37.596Z,10.90
2022-10-22T23:46:06.104Z,10.90
2022-10-22T23:48:34.277Z,11.00
2022-10-22T23:51:06.336Z,10.90
2022-10-22T23:53:35.614Z,10.90
2022-10-22T23:56:05.968Z,10.90
2022-10-22T23:58:34.773Z,10.80
